sensor_id;sensor_type;location;lat;lon;timestamp;P1;durP1;ratioP1;P2;durP2;ratioP2
934;SDS011;454;53.254;10.400;2023-09-08T04:01:43;4.80;;;4.60;;
934;SDS011;454;53.254;10.400;2023-09-08T04:04:09;5.37;;;4.97;;
934;SDS011;454;53.254;10.400;2023-09-08T04:06:36;4.87;;;4.43;;
934;SDS011;454;53.254;10.400;2023-09-08T04:09:03;5.77;;;5.23;;
934;SDS011;454;53.254;10.400;2023-09-08T04:11:29;6.47;;;5.97;;
934;SDS011;454;53.254;10.400;2023-09-08T04:13:56;5.03;;;4.63;;
934;SDS011;454;53.254;10.400;2023-09-08T04:16:23;5.37;;;4.93;;
934;SDS011;454;53.254;10.400;2023-09-08T04:18:51;5.53;;;5.07;;
934;SDS011;454;53.254;10.400;2023-09-08T04:21:18;5.23;;;4.83;;
934;SDS011;454;53.254;10.400;2023-09-08T04:23:44;5.83;;;5.27;;
934;SDS011;454;53.254;10.400;2023-09-08T04:26:11;6.40;;;5.90;;
934;SDS011;454;53.254;10.400;2023-09-08T04:28:38;6.37;;;5.40;;
934;SDS011;454;53.254;10.400;2023-09-08T04:31:05;4.87;;;4.50;;
934;SDS011;454;53.254;10.400;2023-09-08T04:33:32;5.87;;;5.37;;
934;SDS011;454;53.254;10.400;2023-09-08T04:36:00;5.30;;;4.97;;
934;SDS011;454;53.254;10.400;2023-09-08T04:38:26;5.50;;;5.10;;
934;SDS011;454;53.254;10.400;2023-09-08T04:40:53;6.40;;;5.90;;
934;SDS011;454;53.254;10.400;2023-09-08T04:43:20;5.53;;;4.97;;
934;SDS011;454;53.254;10.400;2023-09-08T04:45:46;5.40;;;4.97;;
934;SDS011;454;53.254;10.400;2023-09-08T04:48:13;5.23;;;4.83;;
934;SDS011;454;53.254;10.400;2023-09-08T04:50:40;5.67;;;5.17;;
934;SDS011;454;53.254;10.400;2023-09-08T04:53:08;5.40;;;4.90;;
934;SDS011;454;53.254;10.400;2023-09-08T04:55:34;6.50;;;6.10;;
934;SDS011;454;53.254;10.400;2023-09-08T04:58:01;5.40;;;4.90;;
934;SDS011;454;53.254;10.400;2023-09-08T05:00:28;5.10;;;4.70;;
934;SDS011;454;53.254;10.400;2023-09-08T05:02:55;5.57;;;5.03;;
934;SDS011;454;53.254;10.400;2023-09-08T05:05:21;5.80;;;5.30;;
934;SDS011;454;53.254;10.400;2023-09-08T05:07:48;5.97;;;5.50;;
934;SDS011;454;53.254;10.400;2023-09-08T05:10:17;6.07;;;5.57;;
934;SDS011;454;53.254;10.400;2023-09-08T05:12:44;5.83;;;5.33;;
934;SDS011;454;53.254;10.400;2023-09-08T05:15:11;6.43;;;5.83;;
934;SDS011;454;53.254;10.400;2023-09-08T05:17:40;5.40;;;5.03;;
934;SDS011;454;53.254;10.400;2023-09-08T05:20:07;6.53;;;5.90;;
934;SDS011;454;53.254;10.400;2023-09-08T05:22:34;7.57;;;6.00;;
934;SDS011;454;53.254;10.400;2023-09-08T05:25:01;5.50;;;5.23;;
934;SDS011;454;53.254;10.400;2023-09-08T05:27:29;7.73;;;5.73;;
934;SDS011;454;53.254;10.400;2023-09-08T05:29:56;5.93;;;5.43;;
934;SDS011;454;53.254;10.400;2023-09-08T05:32:23;7.23;;;6.40;;
934;SDS011;454;53.254;10.400;2023-09-08T05:34:50;5.67;;;5.23;;
934;SDS011;454;53.254;10.400;2023-09-08T05:37:17;7.63;;;6.57;;
934;SDS011;454;53.254;10.400;2023-09-08T05:39:43;6.97;;;6.37;;
934;SDS011;454;53.254;10.400;2023-09-08T05:42:10;8.03;;;7.30;;
934;SDS011;454;53.254;10.400;2023-09-08T05:44:38;8.27;;;5.47;;
934;SDS011;454;53.254;10.400;2023-09-08T05:47:05;6.10;;;5.60;;
934;SDS011;454;53.254;10.400;2023-09-08T05:49:32;5.77;;;5.27;;
934;SDS011;454;53.254;10.400;2023-09-08T05:51:58;7.00;;;6.40;;
934;SDS011;454;53.254;10.400;2023-09-08T05:54:25;6.20;;;5.50;;
934;SDS011;454;53.254;10.400;2023-09-08T05:56:54;5.93;;;5.53;;
934;SDS011;454;53.254;10.400;2023-09-08T05:59:20;6.10;;;5.50;;
934;SDS011;454;53.254;10.400;2023-09-08T06:01:48;6.57;;;6.10;;
934;SDS011;454;53.254;10.400;2023-09-08T06:04:15;6.23;;;5.67;;
934;SDS011;454;53.254;10.400;2023-09-08T06:06:42;6.27;;;5.77;;
934;SDS011;454;53.254;10.400;2023-09-08T06:09:09;6.33;;;5.80;;
934;SDS011;454;53.254;10.400;2023-09-08T06:11:37;6.47;;;5.87;;
934;SDS011;454;53.254;10.400;2023-09-08T06:14:03;6.17;;;5.57;;
934;SDS011;454;53.254;10.400;2023-09-08T06:16:30;6.50;;;5.93;;
934;SDS011;454;53.254;10.400;2023-09-08T06:18:58;6.27;;;4.87;;
934;SDS011;454;53.254;10.400;2023-09-08T06:21:25;5.43;;;5.13;;
934;SDS011;454;53.254;10.400;2023-09-08T06:23:52;6.00;;;5.60;;
934;SDS011;454;53.254;10.400;2023-09-08T06:26:18;6.93;;;5.90;;
934;SDS011;454;53.254;10.400;2023-09-08T06:28:45;5.93;;;5.40;;
934;SDS011;454;53.254;10.400;2023-09-08T06:31:12;5.77;;;5.13;;
934;SDS011;454;53.254;10.400;2023-09-08T06:33:39;4.37;;;4.07;;
934;SDS011;454;53.254;10.400;2023-09-08T06:36:07;6.50;;;5.30;;
934;SDS011;454;53.254;10.400;2023-09-08T06:38:34;5.60;;;5.10;;
934;SDS011;454;53.254;10.400;2023-09-08T06:41:01;4.57;;;4.30;;
934;SDS011;454;53.254;10.400;2023-09-08T06:43:34;5.37;;;4.87;;
934;SDS011;454;53.254;10.400;2023-09-08T06:46:01;5.50;;;5.00;;
934;SDS011;454;53.254;10.400;2023-09-08T06:48:28;4.17;;;3.97;;
934;SDS011;454;53.254;10.400;2023-09-08T06:50:55;5.20;;;4.90;;
934;SDS011;454;53.254;10.400;2023-09-08T06:53:23;5.37;;;4.97;;
934;SDS011;454;53.254;10.400;2023-09-08T06:55:50;5.30;;;5.00;;
934;SDS011;454;53.254;10.400;2023-09-08T06:58:17;4.80;;;4.50;;
934;SDS011;454;53.254;10.400;2023-09-08T07:00:43;5.77;;;5.27;;
934;SDS011;454;53.254;10.400;2023-09-08T07:03:10;4.63;;;4.33;;
934;SDS011;454;53.254;10.400;2023-09-08T07:05:38;4.93;;;4.67;;
934;SDS011;454;53.254;10.400;2023-09-08T07:08:05;4.57;;;4.27;;
934;SDS011;454;53.254;10.400;2023-09-08T07:10:33;5.93;;;4.70;;
934;SDS011;454;53.254;10.400;2023-09-08T07:13:03;4.90;;;4.60;;
934;SDS011;454;53.254;10.400;2023-09-08T07:15:30;5.10;;;4.70;;
934;SDS011;454;53.254;10.400;2023-09-08T07:17:56;4.80;;;4.50;;
934;SDS011;454;53.254;10.400;2023-09-08T07:20:23;4.50;;;4.20;;
934;SDS011;454;53.254;10.400;2023-09-08T07:22:50;4.37;;;4.10;;
934;SDS011;454;53.254;10.400;2023-09-08T07:25:16;5.13;;;4.73;;
934;SDS011;454;53.254;10.400;2023-09-08T07:27:45;4.10;;;3.90;;
934;SDS011;454;53.254;10.400;2023-09-08T07:30:12;4.40;;;4.20;;
934;SDS011;454;53.254;10.400;2023-09-08T07:32:39;4.37;;;3.97;;
934;SDS011;454;53.254;10.400;2023-09-08T07:35:06;5.50;;;4.83;;
934;SDS011;454;53.254;10.400;2023-09-08T07:37:39;4.60;;;4.30;;
934;SDS011;454;53.254;10.400;2023-09-08T07:40:06;4.27;;;4.03;;
934;SDS011;454;53.254;10.400;2023-09-08T07:42:34;4.67;;;4.37;;
934;SDS011;454;53.254;10.400;2023-09-08T07:45:02;4.70;;;4.43;;
934;SDS011;454;53.254;10.400;2023-09-08T07:47:29;4.10;;;3.80;;
934;SDS011;454;53.254;10.400;2023-09-08T07:52:44;3.97;;;3.87;;
934;SDS011;454;53.254;10.400;2023-09-08T07:55:11;5.63;;;5.27;;
934;SDS011;454;53.254;10.400;2023-09-08T07:57:38;5.80;;;4.07;;
934;SDS011;454;53.254;10.400;2023-09-08T08:00:07;4.57;;;4.37;;
934;SDS011;454;53.254;10.400;2023-09-08T08:02:36;3.90;;;3.70;;
934;SDS011;454;53.254;10.400;2023-09-08T08:05:04;4.87;;;4.50;;
934;SDS011;454;53.254;10.400;2023-09-08T08:07:31;4.87;;;4.47;;
934;SDS011;454;53.254;10.400;2023-09-08T08:09:58;4.57;;;4.27;;
934;SDS011;454;53.254;10.400;2023-09-08T08:12:25;4.73;;;4.47;;
934;SDS011;454;53.254;10.400;2023-09-08T08:14:52;3.90;;;3.70;;
934;SDS011;454;53.254;10.400;2023-09-08T08:17:20;2.67;;;2.57;;
934;SDS011;454;53.254;10.400;2023-09-08T08:19:47;4.40;;;4.10;;
934;SDS011;454;53.254;10.400;2023-09-08T08:22:13;4.00;;;3.80;;
934;SDS011;454;53.254;10.400;2023-09-08T08:24:40;3.33;;;3.23;;
934;SDS011;454;53.254;10.400;2023-09-08T08:27:07;4.23;;;3.90;;
934;SDS011;454;53.254;10.400;2023-09-08T08:29:33;5.10;;;4.80;;
934;SDS011;454;53.254;10.400;2023-09-08T08:32:00;4.07;;;3.90;;
934;SDS011;454;53.254;10.400;2023-09-08T08:34:28;4.30;;;4.00;;
934;SDS011;454;53.254;10.400;2023-09-08T08:36:55;3.87;;;3.67;;
934;SDS011;454;53.254;10.400;2023-09-08T08:39:22;5.60;;;4.30;;
934;SDS011;454;53.254;10.400;2023-09-08T08:41:49;4.23;;;3.87;;
934;SDS011;454;53.254;10.400;2023-09-08T08:44:15;4.20;;;4.00;;
934;SDS011;454;53.254;10.400;2023-09-08T08:46:43;4.97;;;4.40;;
934;SDS011;454;53.254;10.400;2023-09-08T08:49:12;4.63;;;4.23;;
934;SDS011;454;53.254;10.400;2023-09-08T08:51:43;3.53;;;3.40;;
934;SDS011;454;53.254;10.400;2023-09-08T08:54:12;4.20;;;3.90;;
934;SDS011;454;53.254;10.400;2023-09-08T08:56:39;4.33;;;4.10;;
934;SDS011;454;53.254;10.400;2023-09-08T08:59:07;3.73;;;3.63;;
934;SDS011;454;53.254;10.400;2023-09-08T09:01:35;3.00;;;2.90;;
934;SDS011;454;53.254;10.400;2023-09-08T09:04:03;4.27;;;4.07;;
934;SDS011;454;53.254;10.400;2023-09-08T09:06:32;3.70;;;3.50;;
934;SDS011;454;53.254;10.400;2023-09-08T09:09:00;3.77;;;3.57;;
934;SDS011;454;53.254;10.400;2023-09-08T09:11:29;4.10;;;3.80;;
934;SDS011;454;53.254;10.400;2023-09-08T09:13:56;3.90;;;3.70;;
934;SDS011;454;53.254;10.400;2023-09-08T09:16:23;3.77;;;3.67;;
934;SDS011;454;53.254;10.400;2023-09-08T09:18:54;3.33;;;3.03;;
934;SDS011;454;53.254;10.400;2023-09-08T09:21:22;3.30;;;3.10;;
934;SDS011;454;53.254;10.400;2023-09-08T09:23:49;4.03;;;3.70;;
934;SDS011;454;53.254;10.400;2023-09-08T09:26:24;3.87;;;3.67;;
934;SDS011;454;53.254;10.400;2023-09-08T09:28:51;4.20;;;3.90;;
934;SDS011;454;53.254;10.400;2023-09-08T09:31:19;4.80;;;4.60;;
934;SDS011;454;53.254;10.400;2023-09-08T09:33:50;3.57;;;3.37;;
934;SDS011;454;53.254;10.400;2023-09-08T09:36:29;4.00;;;3.80;;
934;SDS011;454;53.254;10.400;2023-09-08T09:38:57;3.63;;;3.50;;
934;SDS011;454;53.254;10.400;2023-09-08T09:41:26;4.17;;;3.97;;
934;SDS011;454;53.254;10.400;2023-09-08T09:43:54;3.50;;;3.30;;
934;SDS011;454;53.254;10.400;2023-09-08T09:46:21;3.10;;;3.00;;
934;SDS011;454;53.254;10.400;2023-09-08T09:48:50;3.30;;;3.13;;
934;SDS011;454;53.254;10.400;2023-09-08T09:51:18;3.60;;;3.40;;
934;SDS011;454;53.254;10.400;2023-09-08T09:53:45;3.77;;;3.57;;
934;SDS011;454;53.254;10.400;2023-09-08T09:56:13;3.67;;;3.47;;
934;SDS011;454;53.254;10.400;2023-09-08T09:58:42;3.37;;;3.27;;
934;SDS011;454;53.254;10.400;2023-09-08T10:01:10;3.00;;;2.80;;
934;SDS011;454;53.254;10.400;2023-09-08T10:03:37;3.13;;;3.13;;
934;SDS011;454;53.254;10.400;2023-09-08T10:06:05;3.00;;;2.90;;
934;SDS011;454;53.254;10.400;2023-09-08T10:08:32;3.77;;;3.67;;
934;SDS011;454;53.254;10.400;2023-09-08T10:11:01;4.03;;;3.83;;
934;SDS011;454;53.254;10.400;2023-09-08T10:13:31;3.27;;;3.07;;
934;SDS011;454;53.254;10.400;2023-09-08T10:16:06;3.37;;;3.27;;
934;SDS011;454;53.254;10.400;2023-09-08T10:18:35;4.20;;;3.50;;
934;SDS011;454;53.254;10.400;2023-09-08T10:21:03;4.47;;;4.17;;
934;SDS011;454;53.254;10.400;2023-09-08T10:23:31;4.10;;;3.80;;
934;SDS011;454;53.254;10.400;2023-09-08T10:26:02;3.00;;;2.90;;
934;SDS011;454;53.254;10.400;2023-09-08T10:28:32;3.90;;;3.60;;
934;SDS011;454;53.254;10.400;2023-09-08T10:30:59;3.40;;;3.30;;
934;SDS011;454;53.254;10.400;2023-09-08T10:33:28;5.50;;;4.37;;
934;SDS011;454;53.254;10.400;2023-09-08T10:35:55;3.40;;;3.30;;
934;SDS011;454;53.254;10.400;2023-09-08T10:38:24;3.07;;;2.97;;
934;SDS011;454;53.254;10.400;2023-09-08T10:40:52;2.77;;;2.70;;
934;SDS011;454;53.254;10.400;2023-09-08T10:43:20;4.17;;;3.57;;
934;SDS011;454;53.254;10.400;2023-09-08T10:45:47;3.50;;;3.30;;
934;SDS011;454;53.254;10.400;2023-09-08T10:48:13;3.40;;;3.30;;
934;SDS011;454;53.254;10.400;2023-09-08T10:50:43;3.17;;;3.07;;
934;SDS011;454;53.254;10.400;2023-09-08T10:53:12;3.23;;;3.13;;
934;SDS011;454;53.254;10.400;2023-09-08T10:55:40;3.70;;;3.60;;
934;SDS011;454;53.254;10.400;2023-09-08T10:58:16;2.67;;;2.60;;
934;SDS011;454;53.254;10.400;2023-09-08T11:00:45;2.63;;;2.53;;
934;SDS011;454;53.254;10.400;2023-09-08T11:03:13;3.17;;;3.07;;
934;SDS011;454;53.254;10.400;2023-09-08T11:05:44;3.47;;;3.20;;
934;SDS011;454;53.254;10.400;2023-09-08T11:08:11;3.60;;;3.40;;
934;SDS011;454;53.254;10.400;2023-09-08T11:10:39;2.93;;;2.93;;
934;SDS011;454;53.254;10.400;2023-09-08T11:13:06;2.90;;;2.80;;
934;SDS011;454;53.254;10.400;2023-09-08T11:15:32;2.63;;;2.60;;
934;SDS011;454;53.254;10.400;2023-09-08T11:18:04;2.10;;;2.10;;
934;SDS011;454;53.254;10.400;2023-09-08T11:20:32;2.93;;;2.83;;
934;SDS011;454;53.254;10.400;2023-09-08T11:23:01;2.60;;;2.50;;
934;SDS011;454;53.254;10.400;2023-09-08T11:25:30;2.83;;;2.73;;
934;SDS011;454;53.254;10.400;2023-09-08T11:27:58;2.47;;;2.37;;
934;SDS011;454;53.254;10.400;2023-09-08T11:30:25;2.70;;;2.60;;
934;SDS011;454;53.254;10.400;2023-09-08T11:32:52;3.00;;;2.80;;
934;SDS011;454;53.254;10.400;2023-09-08T11:35:19;2.50;;;2.40;;
934;SDS011;454;53.254;10.400;2023-09-08T11:37:46;2.53;;;2.43;;
934;SDS011;454;53.254;10.400;2023-09-08T11:40:15;2.90;;;2.80;;
934;SDS011;454;53.254;10.400;2023-09-08T11:42:44;2.27;;;2.17;;
934;SDS011;454;53.254;10.400;2023-09-08T11:45:11;3.03;;;2.83;;
934;SDS011;454;53.254;10.400;2023-09-08T11:47:40;2.70;;;2.60;;
934;SDS011;454;53.254;10.400;2023-09-08T11:50:08;2.40;;;2.37;;
934;SDS011;454;53.254;10.400;2023-09-08T11:52:36;2.77;;;2.70;;
934;SDS011;454;53.254;10.400;2023-09-08T11:55:04;1.93;;;1.93;;
934;SDS011;454;53.254;10.400;2023-09-08T11:57:32;2.83;;;2.57;;
934;SDS011;454;53.254;10.400;2023-09-08T12:00:00;2.60;;;2.50;;
934;SDS011;454;53.254;10.400;2023-09-08T12:02:33;2.57;;;2.47;;
934;SDS011;454;53.254;10.400;2023-09-08T12:05:00;2.80;;;2.70;;
934;SDS011;454;53.254;10.400;2023-09-08T12:07:27;2.40;;;2.20;;
934;SDS011;454;53.254;10.400;2023-09-08T12:09:54;2.60;;;2.60;;
934;SDS011;454;53.254;10.400;2023-09-08T12:12:20;2.30;;;2.30;;
934;SDS011;454;53.254;10.400;2023-09-08T12:14:48;2.70;;;2.60;;
934;SDS011;454;53.254;10.400;2023-09-08T12:17:15;2.60;;;2.50;;
934;SDS011;454;53.254;10.400;2023-09-08T12:19:43;3.00;;;2.80;;
934;SDS011;454;53.254;10.400;2023-09-08T12:22:09;2.43;;;2.33;;
934;SDS011;454;53.254;10.400;2023-09-08T12:24:46;3.10;;;2.90;;
934;SDS011;454;53.254;10.400;2023-09-08T12:27:14;2.60;;;2.50;;
934;SDS011;454;53.254;10.400;2023-09-08T12:29:41;2.60;;;2.50;;
934;SDS011;454;53.254;10.400;2023-09-08T12:32:11;3.03;;;2.93;;
934;SDS011;454;53.254;10.400;2023-09-08T12:34:37;3.00;;;2.80;;
934;SDS011;454;53.254;10.400;2023-09-08T12:37:05;2.57;;;2.43;;
934;SDS011;454;53.254;10.400;2023-09-08T12:39:35;2.80;;;2.60;;
934;SDS011;454;53.254;10.400;2023-09-08T12:42:03;2.97;;;2.90;;
934;SDS011;454;53.254;10.400;2023-09-08T12:44:30;2.70;;;2.60;;
934;SDS011;454;53.254;10.400;2023-09-08T12:46:57;2.60;;;2.60;;
934;SDS011;454;53.254;10.400;2023-09-08T12:49:26;2.50;;;2.30;;
934;SDS011;454;53.254;10.400;2023-09-08T12:51:53;2.73;;;2.63;;
934;SDS011;454;53.254;10.400;2023-09-08T12:54:19;3.43;;;3.23;;
934;SDS011;454;53.254;10.400;2023-09-08T12:56:46;2.63;;;2.50;;
934;SDS011;454;53.254;10.400;2023-09-08T12:59:13;2.20;;;2.20;;
934;SDS011;454;53.254;10.400;2023-09-08T13:01:40;3.53;;;3.20;;
934;SDS011;454;53.254;10.400;2023-09-08T13:04:06;2.63;;;2.63;;
934;SDS011;454;53.254;10.400;2023-09-08T13:06:34;2.67;;;2.57;;
934;SDS011;454;53.254;10.400;2023-09-08T13:09:01;2.33;;;2.23;;
934;SDS011;454;53.254;10.400;2023-09-08T13:11:29;2.53;;;2.43;;
934;SDS011;454;53.254;10.400;2023-09-08T13:13:55;2.70;;;2.60;;
934;SDS011;454;53.254;10.400;2023-09-08T13:16:22;3.10;;;3.00;;
934;SDS011;454;53.254;10.400;2023-09-08T13:18:49;2.57;;;2.57;;
934;SDS011;454;53.254;10.400;2023-09-08T13:21:16;3.33;;;3.23;;
934;SDS011;454;53.254;10.400;2023-09-08T13:23:44;3.00;;;2.90;;
934;SDS011;454;53.254;10.400;2023-09-08T13:26:11;2.53;;;2.43;;
934;SDS011;454;53.254;10.400;2023-09-08T13:28:37;3.00;;;2.80;;
934;SDS011;454;53.254;10.400;2023-09-08T13:31:04;3.93;;;3.00;;
934;SDS011;454;53.254;10.400;2023-09-08T13:33:31;3.50;;;3.40;;
934;SDS011;454;53.254;10.400;2023-09-08T13:35:57;2.70;;;2.60;;
934;SDS011;454;53.254;10.400;2023-09-08T13:38:24;2.70;;;2.60;;
934;SDS011;454;53.254;10.400;2023-09-08T13:40:52;3.50;;;3.33;;
934;SDS011;454;53.254;10.400;2023-09-08T13:43:19;2.07;;;2.07;;
934;SDS011;454;53.254;10.400;2023-09-08T13:45:46;2.70;;;2.60;;
934;SDS011;454;53.254;10.400;2023-09-08T13:48:13;2.53;;;2.43;;
934;SDS011;454;53.254;10.400;2023-09-08T13:50:40;2.77;;;2.63;;
934;SDS011;454;53.254;10.400;2023-09-08T13:53:06;2.33;;;2.33;;
934;SDS011;454;53.254;10.400;2023-09-08T13:55:33;2.90;;;2.80;;
934;SDS011;454;53.254;10.400;2023-09-08T13:58:01;2.50;;;2.40;;
934;SDS011;454;53.254;10.400;2023-09-08T14:00:28;2.23;;;2.13;;
934;SDS011;454;53.254;10.400;2023-09-08T14:02:55;2.70;;;2.57;;
934;SDS011;454;53.254;10.400;2023-09-08T14:05:22;2.40;;;2.30;;
934;SDS011;454;53.254;10.400;2023-09-08T14:07:48;2.27;;;2.20;;
934;SDS011;454;53.254;10.400;2023-09-08T14:10:15;3.90;;;2.50;;
934;SDS011;454;53.254;10.400;2023-09-08T14:12:42;2.40;;;2.30;;
934;SDS011;454;53.254;10.400;2023-09-08T14:15:10;2.60;;;2.50;;
934;SDS011;454;53.254;10.400;2023-09-08T14:17:40;3.13;;;3.10;;
934;SDS011;454;53.254;10.400;2023-09-08T14:20:07;2.57;;;2.47;;
934;SDS011;454;53.254;10.400;2023-09-08T14:22:34;2.70;;;2.70;;
934;SDS011;454;53.254;10.400;2023-09-08T14:25:01;2.80;;;2.70;;
934;SDS011;454;53.254;10.400;2023-09-08T14:27:29;2.60;;;2.53;;
934;SDS011;454;53.254;10.400;2023-09-08T14:29:55;4.83;;;2.00;;
934;SDS011;454;53.254;10.400;2023-09-08T14:32:23;2.73;;;2.63;;
934;SDS011;454;53.254;10.400;2023-09-08T14:34:50;2.30;;;2.30;;
934;SDS011;454;53.254;10.400;2023-09-08T14:37:17;2.33;;;2.23;;
934;SDS011;454;53.254;10.400;2023-09-08T14:39:44;1.90;;;1.90;;
934;SDS011;454;53.254;10.400;2023-09-08T14:42:11;1.90;;;1.80;;
934;SDS011;454;53.254;10.400;2023-09-08T14:44:39;2.57;;;2.47;;
934;SDS011;454;53.254;10.400;2023-09-08T14:47:06;2.37;;;2.37;;
934;SDS011;454;53.254;10.400;2023-09-08T14:49:35;2.60;;;2.40;;
934;SDS011;454;53.254;10.400;2023-09-08T14:52:01;3.30;;;2.90;;
934;SDS011;454;53.254;10.400;2023-09-08T14:54:28;3.00;;;2.90;;
934;SDS011;454;53.254;10.400;2023-09-08T14:56:55;2.47;;;2.37;;
934;SDS011;454;53.254;10.400;2023-09-08T14:59:22;2.27;;;2.27;;
934;SDS011;454;53.254;10.400;2023-09-08T15:01:49;2.40;;;2.30;;
934;SDS011;454;53.254;10.400;2023-09-08T15:04:18;2.20;;;2.10;;
934;SDS011;454;53.254;10.400;2023-09-08T15:06:47;2.60;;;2.50;;
934;SDS011;454;53.254;10.400;2023-09-08T15:09:14;1.93;;;1.93;;
934;SDS011;454;53.254;10.400;2023-09-08T15:11:40;2.37;;;2.27;;
934;SDS011;454;53.254;10.400;2023-09-08T15:14:07;2.87;;;2.77;;
934;SDS011;454;53.254;10.400;2023-09-08T15:16:34;2.20;;;2.20;;
934;SDS011;454;53.254;10.400;2023-09-08T15:19:01;3.17;;;2.97;;
934;SDS011;454;53.254;10.400;2023-09-08T15:21:27;2.40;;;2.13;;
934;SDS011;454;53.254;10.400;2023-09-08T15:23:56;2.90;;;2.80;;
934;SDS011;454;53.254;10.400;2023-09-08T15:26:23;2.33;;;2.33;;
934;SDS011;454;53.254;10.400;2023-09-08T15:28:50;2.20;;;2.10;;
934;SDS011;454;53.254;10.400;2023-09-08T15:31:16;2.30;;;2.30;;
934;SDS011;454;53.254;10.400;2023-09-08T15:33:44;3.13;;;2.83;;
934;SDS011;454;53.254;10.400;2023-09-08T15:36:10;2.00;;;1.90;;
934;SDS011;454;53.254;10.400;2023-09-08T15:38:37;2.70;;;2.60;;
934;SDS011;454;53.254;10.400;2023-09-08T15:41:15;2.10;;;2.10;;
934;SDS011;454;53.254;10.400;2023-09-08T15:43:44;2.37;;;2.30;;
934;SDS011;454;53.254;10.400;2023-09-08T15:46:12;2.03;;;1.93;;
934;SDS011;454;53.254;10.400;2023-09-08T15:48:39;1.93;;;1.93;;
934;SDS011;454;53.254;10.400;2023-09-08T15:51:07;2.17;;;2.17;;
934;SDS011;454;53.254;10.400;2023-09-08T15:53:34;1.10;;;1.10;;
934;SDS011;454;53.254;10.400;2023-09-08T15:56:01;2.07;;;1.97;;
934;SDS011;454;53.254;10.400;2023-09-08T15:58:29;1.37;;;1.37;;
934;SDS011;454;53.254;10.400;2023-09-08T16:00:56;1.50;;;1.50;;
934;SDS011;454;53.254;10.400;2023-09-08T16:03:23;1.80;;;1.80;;
934;SDS011;454;53.254;10.400;2023-09-08T16:05:50;2.13;;;2.03;;
934;SDS011;454;53.254;10.400;2023-09-08T16:08:16;1.80;;;1.80;;
934;SDS011;454;53.254;10.400;2023-09-08T16:10:43;2.13;;;2.03;;
934;SDS011;454;53.254;10.400;2023-09-08T16:13:11;1.80;;;1.80;;
934;SDS011;454;53.254;10.400;2023-09-08T16:15:39;2.03;;;1.93;;
934;SDS011;454;53.254;10.400;2023-09-08T16:18:06;1.67;;;1.60;;
934;SDS011;454;53.254;10.400;2023-09-08T16:20:34;1.80;;;1.80;;
934;SDS011;454;53.254;10.400;2023-09-08T16:23:03;2.53;;;2.43;;
934;SDS011;454;53.254;10.400;2023-09-08T16:25:30;2.20;;;2.10;;
934;SDS011;454;53.254;10.400;2023-09-08T16:27:57;1.73;;;1.73;;
934;SDS011;454;53.254;10.400;2023-09-08T16:30:24;1.90;;;1.90;;
934;SDS011;454;53.254;10.400;2023-09-08T16:32:52;2.23;;;2.23;;
934;SDS011;454;53.254;10.400;2023-09-08T16:35:18;1.80;;;1.80;;
934;SDS011;454;53.254;10.400;2023-09-08T16:37:45;2.00;;;2.00;;
934;SDS011;454;53.254;10.400;2023-09-08T16:40:12;1.90;;;1.90;;
934;SDS011;454;53.254;10.400;2023-09-08T16:42:39;2.03;;;1.80;;
934;SDS011;454;53.254;10.400;2023-09-08T16:45:06;2.13;;;2.03;;
934;SDS011;454;53.254;10.400;2023-09-08T16:47:33;2.60;;;2.50;;
934;SDS011;454;53.254;10.400;2023-09-08T16:50:01;2.20;;;2.10;;
934;SDS011;454;53.254;10.400;2023-09-08T16:52:29;2.20;;;2.10;;
934;SDS011;454;53.254;10.400;2023-09-08T16:54:56;2.07;;;1.97;;
934;SDS011;454;53.254;10.400;2023-09-08T16:57:23;2.13;;;1.97;;
934;SDS011;454;53.254;10.400;2023-09-08T16:59:50;2.30;;;2.00;;
934;SDS011;454;53.254;10.400;2023-09-08T17:02:16;2.10;;;2.03;;
934;SDS011;454;53.254;10.400;2023-09-08T17:04:46;2.23;;;2.13;;
934;SDS011;454;53.254;10.400;2023-09-08T17:07:14;2.03;;;2.03;;
934;SDS011;454;53.254;10.400;2023-09-08T17:09:41;2.40;;;2.30;;
934;SDS011;454;53.254;10.400;2023-09-08T17:12:07;2.30;;;2.20;;
934;SDS011;454;53.254;10.400;2023-09-08T17:14:34;2.33;;;2.33;;
934;SDS011;454;53.254;10.400;2023-09-08T17:17:02;2.37;;;2.33;;
934;SDS011;454;53.254;10.400;2023-09-08T17:19:29;1.90;;;1.80;;
934;SDS011;454;53.254;10.400;2023-09-08T17:21:55;2.00;;;1.93;;
934;SDS011;454;53.254;10.400;2023-09-08T17:24:24;2.30;;;2.30;;
934;SDS011;454;53.254;10.400;2023-09-08T17:26:51;2.70;;;2.60;;
934;SDS011;454;53.254;10.400;2023-09-08T17:29:18;3.47;;;3.27;;
934;SDS011;454;53.254;10.400;2023-09-08T17:31:44;2.87;;;2.67;;
934;SDS011;454;53.254;10.400;2023-09-08T17:34:16;3.30;;;3.10;;
934;SDS011;454;53.254;10.400;2023-09-08T17:36:43;2.10;;;2.00;;
934;SDS011;454;53.254;10.400;2023-09-08T17:39:10;3.00;;;2.90;;
934;SDS011;454;53.254;10.400;2023-09-08T17:41:38;3.60;;;3.40;;
934;SDS011;454;53.254;10.400;2023-09-08T17:44:05;3.10;;;2.90;;
934;SDS011;454;53.254;10.400;2023-09-08T17:46:32;3.70;;;3.40;;
934;SDS011;454;53.254;10.400;2023-09-08T17:48:59;3.10;;;3.00;;
934;SDS011;454;53.254;10.400;2023-09-08T17:51:25;3.00;;;2.80;;
934;SDS011;454;53.254;10.400;2023-09-08T17:53:52;3.10;;;2.90;;
934;SDS011;454;53.254;10.400;2023-09-08T17:56:19;3.83;;;3.53;;
934;SDS011;454;53.254;10.400;2023-09-08T17:58:47;4.57;;;3.93;;
934;SDS011;454;53.254;10.400;2023-09-08T18:01:13;3.53;;;3.40;;
934;SDS011;454;53.254;10.400;2023-09-08T18:03:40;3.10;;;2.90;;
934;SDS011;454;53.254;10.400;2023-09-08T18:06:07;3.93;;;3.63;;
934;SDS011;454;53.254;10.400;2023-09-08T18:08:34;2.67;;;2.50;;
934;SDS011;454;53.254;10.400;2023-09-08T18:11:01;3.27;;;3.07;;
934;SDS011;454;53.254;10.400;2023-09-08T18:13:28;3.23;;;3.03;;
934;SDS011;454;53.254;10.400;2023-09-08T18:15:57;3.53;;;3.40;;
934;SDS011;454;53.254;10.400;2023-09-08T18:18:24;3.50;;;3.20;;
934;SDS011;454;53.254;10.400;2023-09-08T18:20:51;3.27;;;3.17;;
934;SDS011;454;53.254;10.400;2023-09-08T18:23:18;3.40;;;3.20;;
934;SDS011;454;53.254;10.400;2023-09-08T18:25:45;3.30;;;3.00;;
934;SDS011;454;53.254;10.400;2023-09-08T18:28:13;4.67;;;4.40;;
934;SDS011;454;53.254;10.400;2023-09-08T18:30:40;4.37;;;4.07;;
934;SDS011;454;53.254;10.400;2023-09-08T18:33:09;4.50;;;4.10;;
934;SDS011;454;53.254;10.400;2023-09-08T18:35:36;4.60;;;4.30;;
934;SDS011;454;53.254;10.400;2023-09-08T18:38:05;5.17;;;4.73;;
934;SDS011;454;53.254;10.400;2023-09-08T18:40:33;5.17;;;4.73;;
934;SDS011;454;53.254;10.400;2023-09-08T18:43:00;3.97;;;3.67;;
934;SDS011;454;53.254;10.400;2023-09-08T18:45:27;4.60;;;4.20;;
934;SDS011;454;53.254;10.400;2023-09-08T18:47:54;4.20;;;3.80;;
934;SDS011;454;53.254;10.400;2023-09-08T18:50:22;6.70;;;6.27;;
934;SDS011;454;53.254;10.400;2023-09-08T18:52:49;9.70;;;8.80;;
934;SDS011;454;53.254;10.400;2023-09-08T18:55:16;10.60;;;9.70;;
934;SDS011;454;53.254;10.400;2023-09-08T18:57:42;11.27;;;10.33;;
934;SDS011;454;53.254;10.400;2023-09-08T19:00:10;10.30;;;9.40;;
934;SDS011;454;53.254;10.400;2023-09-08T19:02:37;10.30;;;9.30;;
934;SDS011;454;53.254;10.400;2023-09-08T19:05:04;8.80;;;7.90;;
934;SDS011;454;53.254;10.400;2023-09-08T19:07:33;9.30;;;8.40;;
934;SDS011;454;53.254;10.400;2023-09-08T19:09:59;7.80;;;7.20;;
934;SDS011;454;53.254;10.400;2023-09-08T19:12:28;8.60;;;7.80;;
934;SDS011;454;53.254;10.400;2023-09-08T19:14:54;8.60;;;7.77;;
934;SDS011;454;53.254;10.400;2023-09-08T19:17:21;9.73;;;8.90;;
934;SDS011;454;53.254;10.400;2023-09-08T19:19:48;7.33;;;6.70;;
934;SDS011;454;53.254;10.400;2023-09-08T19:22:14;8.30;;;7.60;;
934;SDS011;454;53.254;10.400;2023-09-08T19:24:42;6.63;;;6.07;;
934;SDS011;454;53.254;10.400;2023-09-08T19:27:09;7.00;;;6.47;;
934;SDS011;454;53.254;10.400;2023-09-08T19:29:37;9.23;;;8.53;;
934;SDS011;454;53.254;10.400;2023-09-08T19:32:04;11.97;;;10.80;;
934;SDS011;454;53.254;10.400;2023-09-08T19:34:31;9.10;;;8.30;;